KBAX

Huron County Memorial Airport

Bad Axe, Michigan, USA
METAR KBAX 241417Z AUTO 12009G14KT 080V150 10SM OVC013 16/13 A3026 RMK AO2 T01580131
Observed Flight Rules
Sep-24 @ 14:17 UTC (5 minutes ago) Marginal Visual Flight Rules
Wind Visibility Clouds
120° at 9 knots
 Gusting to 14 knots
10 miles
  • Overcast at 1,300' AGL
Temperatures Readings
Current 16°C / 61°F
Dewpoint 13°C / 55°F
Humidity 83%
Altimeter 30.26" Hg
Pressure 1025 hPa
Elevation 234
METAR KBAX 241417Z AUTO 12009G14KT 080V150 10SM OVC013 16/13 A3026 RMK AO2 T01580131
Observed Flight Rules
Sep-24 @ 14:17 UTC
(5 minutes ago)
MVFR
Wind Visibility
120° at 9 knots
 Gusting to 14 knots
10 miles
Clouds
  • Overcast at 1,300' AGL
Temperature Dewpoint
16°C / 61°F 13°C / 55°F
Humidity Altimeter Pressure
83% 30.26" Hg 1025 hPa